Terminal Aerodrome Forecast
Issued by NWS Brownsville, TX

Home | Current Version | Previous Version | Text Only | Print | Product List | Glossary On
Versions: 1 2 3 4 5 6 7 8 9 10 11 12 13 14 15 16
000
FTUS44 KBRO 181439 AAA
TAFBRO
TAF AMD
KBRO 181439Z 1815/1912 29007KT P6SM VCSH BKN020
      TEMPO 1815/1818 4SM -RA OVC007
     FM181800 23010KT P6SM VCSH SCT015 BKN030
     FM182100 VRB05KT P6SM SCT015 BKN030
     FM190600 33003KT 4SM BR VCSH BKN015 PROB30 1906/1912 2SM SHRA
      BR OVC015=

USA.gov is the U.S. government's official web portal to all federal, state and local government web resources and services.